Time;durP1;ratioP1;P1;durP2;ratioP2;P2;SDS_P1;SDS_P2;PMS_P1;PMS_P2;Temp;Humidity;BMP_temperature;BMP_pressure;BME280_temperature;BME280_humidity;BME280_pressure;Samples;Min_cycle;Max_cycle;Signal;HPM_P1;HPM_P2
2021/04/03 00:00:44;;;;;;;9.77;6.10;;;;;;;3.83;61.13;99658.67;1651517;83;21053;-82
2021/04/03 00:03:16;;;;;;;21.23;7.07;;;;;;;3.81;61.09;99660.15;1684248;84;21185;-80
2021/04/03 00:05:44;;;;;;;11.67;6.77;;;;;;;3.83;61.19;99658.17;1695265;83;21156;-80
2021/04/03 00:08:13;;;;;;;9.77;5.73;;;;;;;3.84;61.24;99662.47;1695434;84;21203;-78
2021/04/03 00:10:52;;;;;;;7.50;6.13;;;;;;;3.86;61.23;99660.97;1695177;83;21176;-79
2021/04/03 00:13:26;;;;;;;10.03;6.23;;;;;;;3.88;61.04;99660.31;1701410;82;21115;-80
2021/04/03 00:15:57;;;;;;;11.13;6.03;;;;;;;3.86;61.09;99659.18;1701802;83;21206;-80
2021/04/03 00:18:24;;;;;;;8.17;6.13;;;;;;;3.86;61.15;99659.18;1702022;84;21392;-79
2021/04/03 00:20:52;;;;;;;9.73;6.13;;;;;;;3.86;61.36;99655.70;1685084;83;21288;-78
2021/04/03 00:23:21;;;;;;;10.17;6.97;;;;;;;3.84;61.15;99655.88;1649565;84;21271;-78
2021/04/03 00:25:50;;;;;;;10.90;8.07;;;;;;;3.82;61.22;99654.38;1628056;83;21202;-77
2021/04/03 00:28:18;;;;;;;11.33;7.10;;;;;;;3.79;61.17;99650.77;1639437;86;21364;-78
2021/04/03 00:30:45;;;;;;;12.10;7.90;;;;;;;3.77;61.29;99656.66;1625006;87;21230;-79
2021/04/03 00:33:12;;;;;;;9.30;7.27;;;;;;;3.73;61.36;99659.30;1631419;85;21260;-78
2021/04/03 00:35:44;;;;;;;12.93;8.40;;;;;;;3.69;61.44;99654.36;1614710;86;21240;-80
2021/04/03 00:38:14;;;;;;;12.30;8.57;;;;;;;3.67;61.56;99653.70;1625872;86;21228;-79
2021/04/03 00:40:46;;;;;;;12.07;8.07;;;;;;;3.67;61.50;99656.80;1638608;86;21218;-80
2021/04/03 00:43:18;;;;;;;10.63;8.83;;;;;;;3.65;61.55;99661.41;1635672;86;21202;-77
2021/04/03 00:45:49;;;;;;;15.67;9.80;;;;;;;3.61;61.70;99662.22;1653656;85;21142;-78
2021/04/03 00:48:20;;;;;;;13.37;9.53;;;;;;;3.60;61.90;99657.11;1666482;85;21656;-79
2021/04/03 00:50:53;;;;;;;12.43;9.23;;;;;;;3.58;62.05;99663.88;1665601;85;21221;-79
2021/04/03 00:53:26;;;;;;;13.28;9.98;;;;;;;3.56;62.00;99657.95;1656405;86;21370;-78
2021/04/03 00:55:57;;;;;;;11.53;9.03;;;;;;;3.56;61.90;99663.22;1647105;86;21131;-79
2021/04/03 00:58:27;;;;;;;12.20;9.53;;;;;;;3.57;62.10;99666.16;1636128;86;21191;-79
2021/04/03 01:00:54;;;;;;;10.93;8.60;;;;;;;3.57;62.11;99662.72;1668584;85;21247;-78
2021/04/03 01:03:24;;;;;;;13.23;9.23;;;;;;;3.55;62.08;99660.23;1669832;85;21521;-79
2021/04/03 01:05:54;;;;;;;11.77;9.13;;;;;;;3.55;62.10;99662.05;1644211;86;21657;-79
2021/04/03 01:08:23;;;;;;;13.30;9.13;;;;;;;3.55;62.02;99664.69;1634520;86;21900;-79
2021/04/03 01:10:54;;;;;;;12.57;9.27;;;;;;;3.56;62.16;99665.00;1645720;86;21230;-79
2021/04/03 01:13:44;;;;;;;15.10;9.80;;;;;;;3.53;62.07;99672.75;1675977;84;21087;-79
2021/04/03 01:16:26;;;;;;;14.23;9.60;;;;;;;3.54;62.11;99664.34;1682468;84;21210;-78
2021/04/03 01:19:19;;;;;;;11.27;9.73;;;;;;;3.50;62.26;99668.63;1658982;86;21201;-78
2021/04/03 01:22:22;;;;;;;12.37;10.07;;;;;;;3.59;62.34;99666.02;1811035;77;23037;-77
2021/04/03 01:25:20;;;;;;;12.97;9.43;;;;;;;3.66;62.38;99672.30;1772229;79;21170;-79
2021/04/03 01:28:17;;;;;;;16.23;10.37;;;;;;;3.67;62.26;99669.52;1757936;79;21278;-80
2021/04/03 01:30:48;;;;;;;16.00;9.63;;;;;;;2.94;61.89;99552.84;1782146;79;21183;-79
2021/04/03 01:33:19;;;;;;;14.73;10.33;;;;;;;3.66;62.04;99672.30;1788164;79;21306;-79
2021/04/03 01:36:04;;;;;;;13.43;10.40;;;;;;;3.65;61.97;99672.77;1729271;81;21216;-79
2021/04/03 01:38:42;;;;;;;13.13;10.13;;;;;;;3.66;61.60;99665.21;1757859;81;21329;-80
2021/04/03 01:41:16;;;;;;;14.40;10.27;;;;;;;3.65;61.49;99668.82;1757842;80;21196;-80
2021/04/03 01:43:47;;;;;;;15.33;9.67;;;;;;;3.63;61.48;99669.47;1768153;81;21191;-79
2021/04/03 01:46:18;;;;;;;17.83;11.40;;;;;;;3.56;61.51;99669.80;1758392;80;21350;-79
2021/04/03 01:48:48;;;;;;;17.40;11.40;;;;;;;3.51;61.71;99669.45;1711374;81;21537;-80
2021/04/03 01:51:16;;;;;;;15.17;11.23;;;;;;;3.46;61.75;99671.22;1755875;80;21204;-79
2021/04/03 01:53:45;;;;;;;16.30;11.87;;;;;;;3.45;61.95;99672.23;1758030;81;21208;-79
2021/04/03 01:56:16;;;;;;;15.83;11.30;;;;;;;3.44;62.08;99668.42;1752227;81;21127;-79
2021/04/03 01:58:45;;;;;;;14.63;11.43;;;;;;;3.42;61.99;99668.58;1757935;81;21192;-81
2021/04/03 02:01:15;;;;;;;18.10;12.83;;;;;;;3.43;62.04;99667.61;1743179;80;21138;-80
2021/04/03 02:03:45;;;;;;;17.10;12.53;;;;;;;3.39;62.20;99666.28;1755359;81;21193;-80
2021/04/03 02:06:16;;;;;;;19.33;13.17;;;;;;;3.37;62.32;99661.66;1737596;80;21208;-79
2021/04/03 02:08:49;;;;;;;14.60;11.77;;;;;;;3.35;62.49;99665.42;1778866;80;21315;-79
2021/04/03 02:11:48;;;;;;;19.70;12.40;;;;;;;3.36;62.36;99658.68;1754135;79;23026;-80
2021/04/03 02:14:26;;;;;;;17.80;12.37;;;;;;;3.26;62.37;99660.63;1663299;85;21196;-79
2021/04/03 02:16:56;;;;;;;16.80;12.40;;;;;;;3.20;62.62;99660.77;1662853;84;21180;-80
2021/04/03 02:19:23;;;;;;;17.30;12.70;;;;;;;2.97;62.74;99622.78;1688276;81;21196;-80
2021/04/03 02:21:54;;;;;;;17.87;12.23;;;;;;;3.14;62.70;99655.28;1678713;83;21333;-80
2021/04/03 02:24:22;;;;;;;15.93;12.90;;;;;;;3.08;62.72;99650.16;1677143;84;21139;-79
2021/04/03 02:26:51;;;;;;;17.33;12.17;;;;;;;3.02;62.93;99650.78;1677925;84;21552;-79
2021/04/03 02:29:19;;;;;;;17.67;12.27;;;;;;;3.00;63.14;99647.48;1665425;84;21188;-79
2021/04/03 02:31:49;;;;;;;22.40;13.43;;;;;;;2.96;63.38;99651.39;1642584;85;21350;-80
2021/04/03 02:34:17;;;;;;;18.50;13.97;;;;;;;2.92;63.37;99653.03;1638027;85;21149;-79
2021/04/03 02:36:49;;;;;;;19.57;13.70;;;;;;;2.88;63.45;99650.38;1629333;83;21193;-78
2021/04/03 02:39:18;;;;;;;17.80;14.93;;;;;;;2.85;63.49;99652.50;1625740;83;21142;-79
2021/04/03 02:42:00;;;;;;;21.40;13.97;;;;;;;2.91;63.33;99653.19;1644264;84;21205;-79
2021/04/03 02:44:39;;;;;;;14.83;12.83;;;;;;;2.91;63.38;99646.11;1641249;86;21543;-78
2021/04/03 02:47:24;;;;;;;21.93;15.80;;;;;;;2.84;63.64;99645.07;1655010;86;21181;-79
2021/04/03 02:50:07;;;;;;;21.17;14.83;;;;;;;2.82;63.84;99648.84;1668105;86;21342;-79
2021/04/03 02:52:39;;;;;;;18.00;13.97;;;;;;;2.76;63.98;99646.34;1667787;86;21213;-80
2021/04/03 02:55:09;;;;;;;17.70;13.30;;;;;;;2.70;64.07;99648.28;1666146;86;21332;-78
2021/04/03 02:57:40;;;;;;;18.93;14.90;;;;;;;2.68;64.31;99651.06;1643463;86;21186;-79
2021/04/03 03:00:12;;;;;;;18.10;13.07;;;;;;;2.64;64.52;99650.23;1624211;86;21150;-79
2021/04/03 03:02:42;;;;;;;17.40;12.50;;;;;;;2.62;64.38;99655.64;1617389;87;21209;-79
2021/04/03 03:05:14;;;;;;;16.50;12.63;;;;;;;2.53;64.42;99647.34;1624930;87;21171;-79
2021/04/03 03:07:46;;;;;;;21.13;13.80;;;;;;;2.46;64.58;99644.98;1635889;86;21146;-79
2021/04/03 03:10:19;;;;;;;16.07;12.13;;;;;;;2.36;64.73;99650.34;1626452;86;21199;-80
2021/04/03 03:12:50;;;;;;;19.00;14.30;;;;;;;2.30;64.98;99653.09;1649369;85;21094;-80
2021/04/03 03:15:19;;;;;;;18.73;12.23;;;;;;;2.24;65.20;99650.22;1660056;86;21303;-78
2021/04/03 03:17:48;;;;;;;15.50;12.53;;;;;;;2.22;65.23;99654.31;1646635;85;21456;-79
2021/04/03 03:20:19;;;;;;;19.07;13.43;;;;;;;2.17;65.63;99650.02;1650406;85;21206;-80
2021/04/03 03:22:49;;;;;;;18.60;12.97;;;;;;;2.10;66.03;99650.28;1653956;84;21099;-79
2021/04/03 03:25:17;;;;;;;17.23;13.13;;;;;;;2.20;66.30;99654.14;1665236;85;21402;-79
2021/04/03 03:27:47;;;;;;;19.50;14.03;;;;;;;2.25;66.58;99649.27;1654034;85;21641;-80
2021/04/03 03:30:20;;;;;;;18.97;13.63;;;;;;;2.19;66.77;99648.56;1663574;85;21184;-80
2021/04/03 03:32:49;;;;;;;16.97;13.53;;;;;;;2.15;66.89;99651.98;1661251;85;21170;-79
2021/04/03 03:35:18;;;;;;;20.07;13.07;;;;;;;2.11;67.07;99654.08;1664182;85;21112;-80
2021/04/03 03:37:48;;;;;;;16.63;11.37;;;;;;;2.12;67.25;99648.32;1639964;86;21180;-80
2021/04/03 03:40:18;;;;;;;15.80;12.23;;;;;;;2.18;67.28;99639.00;1663810;85;21710;-79
2021/04/03 03:42:48;;;;;;;11.33;9.70;;;;;;;2.31;67.20;99637.63;1662248;85;21190;-80
2021/04/03 03:45:20;;;;;;;14.03;10.03;;;;;;;2.43;66.77;99645.28;1673597;82;21531;-79
2021/04/03 03:47:49;;;;;;;17.97;9.87;;;;;;;2.57;66.37;99643.92;1648673;85;21348;-77
2021/04/03 03:50:16;;;;;;;13.73;8.77;;;;;;;2.72;65.88;99644.51;1640693;86;21229;-80
2021/04/03 03:52:45;;;;;;;11.70;8.67;;;;;;;2.91;64.74;99635.58;1606961;87;21200;-78
2021/04/03 03:55:13;;;;;;;9.70;8.00;;;;;;;3.30;64.26;99635.11;1630926;86;21234;-78
2021/04/03 03:57:40;;;;;;;10.90;8.37;;;;;;;3.87;62.01;99637.59;1629811;86;21363;-78
2021/04/03 04:00:12;;;;;;;11.93;8.27;;;;;;;4.49;59.93;99642.41;1641740;86;21196;-78
2021/04/03 04:02:43;;;;;;;10.17;7.37;;;;;;;5.09;57.79;99645.11;1593726;88;21223;-77
2021/04/03 04:05:13;;;;;;;10.13;7.83;;;;;;;5.70;56.10;99637.41;1596564;90;21217;-78
2021/04/03 04:07:43;;;;;;;8.50;6.90;;;;;;;6.24;53.52;99638.74;1607012;88;21348;-78
2021/04/03 04:10:13;;;;;;;13.10;8.23;;;;;;;6.66;52.57;99644.52;1601042;88;22625;-79
2021/04/03 04:12:45;;;;;;;10.77;8.00;;;;;;;7.05;51.48;99650.61;1603613;87;21534;-79
2021/04/03 04:15:16;;;;;;;9.93;7.60;;;;;;;7.51;51.25;99650.39;1592902;88;21835;-79
2021/04/03 04:17:45;;;;;;;13.00;7.60;;;;;;;7.99;48.74;99650.23;1644215;86;22365;-79
2021/04/03 04:20:15;;;;;;;10.77;6.37;;;;;;;8.36;48.12;99649.67;1639854;86;21619;-79
2021/04/03 04:22:44;;;;;;;8.00;6.63;;;;;;;8.77;46.76;99646.34;1645130;86;21106;-81
2021/04/03 04:25:12;;;;;;;7.03;6.33;;;;;;;9.14;45.02;99645.66;1621402;86;21204;-83
2021/04/03 04:27:42;;;;;;;8.43;6.90;;;;;;;9.39;43.82;99648.36;1620602;86;21240;-83
2021/04/03 04:30:10;;;;;;;7.63;6.27;;;;;;;9.48;43.09;99647.98;1626659;86;21647;-79
2021/04/03 04:32:41;;;;;;;8.27;6.47;;;;;;;9.71;43.06;99648.98;1644908;86;21193;-82
2021/04/03 04:35:11;;;;;;;10.07;6.57;;;;;;;9.87;42.20;99650.48;1635297;85;21232;-83
2021/04/03 04:37:41;;;;;;;7.83;7.03;;;;;;;10.18;42.09;99650.45;1655685;85;21186;-83
2021/04/03 04:40:12;;;;;;;7.97;7.17;;;;;;;10.61;41.50;99652.77;1652679;85;21205;-79
2021/04/03 04:42:44;;;;;;;8.47;6.77;;;;;;;10.94;40.91;99653.24;1635965;85;21197;-79
2021/04/03 04:45:14;;;;;;;11.87;7.97;;;;;;;11.06;40.32;99644.92;1573604;89;21139;-80
2021/04/03 04:47:42;;;;;;;8.83;7.83;;;;;;;10.92;39.95;99645.97;1639074;86;21347;-79
2021/04/03 04:50:11;;;;;;;10.60;7.73;;;;;;;10.96;40.82;99648.52;1631748;87;21217;-78
2021/04/03 04:52:40;;;;;;;10.47;8.43;;;;;;;10.98;39.90;99645.16;1650547;83;21110;-79
2021/04/03 04:55:11;;;;;;;9.60;7.60;;;;;;;10.76;40.60;99651.23;1629861;87;21193;-77
2021/04/03 04:57:39;;;;;;;12.20;7.70;;;;;;;10.46;40.65;99646.30;1634956;87;21149;-79
2021/04/03 05:00:10;;;;;;;11.37;8.47;;;;;;;10.15;41.70;99649.51;1649447;85;21335;-79
2021/04/03 05:02:40;;;;;;;10.90;9.47;;;;;;;9.98;42.08;99655.72;1645052;87;21849;-80
2021/04/03 05:05:08;;;;;;;9.73;8.43;;;;;;;9.97;42.05;99655.95;1646148;87;21592;-80
2021/04/03 05:07:34;;;;;;;11.73;9.43;;;;;;;10.12;41.90;99657.92;1637778;87;21217;-78
2021/04/03 05:10:04;;;;;;;10.87;8.80;;;;;;;10.40;42.01;99655.64;1638090;87;21710;-79
2021/04/03 05:12:31;;;;;;;10.80;9.50;;;;;;;10.69;41.53;99660.55;1645532;86;21118;-77
2021/04/03 05:14:58;;;;;;;15.93;10.40;;;;;;;10.97;41.00;99663.50;1649477;87;21149;-79
2021/04/03 05:17:25;;;;;;;12.33;9.57;;;;;;;11.26;40.48;99664.06;1644335;87;21208;-80
2021/04/03 05:19:54;;;;;;;14.50;11.60;;;;;;;11.29;39.94;99664.98;1648043;87;21229;-78
2021/04/03 05:22:21;;;;;;;12.67;11.03;;;;;;;11.39;40.39;99660.02;1642772;85;21205;-79
2021/04/03 05:24:49;;;;;;;14.77;10.10;;;;;;;11.76;40.04;99660.81;1646118;87;21198;-78
2021/04/03 05:27:15;;;;;;;12.87;9.47;;;;;;;12.11;39.19;99659.95;1640753;87;21226;-79
2021/04/03 05:29:42;;;;;;;14.33;10.47;;;;;;;12.25;38.18;99654.80;1642721;87;21221;-77
2021/04/03 05:32:10;;;;;;;11.73;7.97;;;;;;;12.33;37.77;99656.39;1653039;87;21188;-78
2021/04/03 05:34:37;;;;;;;9.30;7.60;;;;;;;12.41;37.23;99659.31;1651552;84;21109;-77
2021/04/03 05:37:06;;;;;;;10.63;8.50;;;;;;;12.51;37.89;99654.32;1649080;86;21753;-78
2021/04/03 05:39:35;;;;;;;9.43;7.73;;;;;;;12.75;37.10;99659.87;1631927;87;21188;-78
2021/04/03 05:42:03;;;;;;;11.43;8.40;;;;;;;12.87;36.85;99652.78;1652955;87;21201;-80
2021/04/03 05:44:32;;;;;;;8.77;7.57;;;;;;;12.94;36.08;99656.71;1640384;85;21087;-78
2021/04/03 05:47:01;;;;;;;6.00;5.33;;;;;;;12.65;37.01;99655.83;1617155;87;22276;-79
2021/04/03 05:49:29;;;;;;;8.78;6.40;;;;;;;12.64;36.56;99658.22;1652540;85;21229;-77
2021/04/03 05:51:56;;;;;;;6.97;5.20;;;;;;;12.56;36.68;99653.66;1649684;85;21802;-79
2021/04/03 05:54:26;;;;;;;5.97;5.37;;;;;;;12.42;36.87;99660.44;1653822;85;21238;-80
2021/04/03 05:56:54;;;;;;;5.37;4.40;;;;;;;12.60;36.50;99666.38;1613712;86;21525;-83
2021/04/03 05:59:22;;;;;;;6.50;4.60;;;;;;;12.71;36.63;99667.51;1629790;85;21221;-81
2021/04/03 06:01:50;;;;;;;8.40;5.33;;;;;;;12.94;36.23;99668.25;1651269;85;21130;-83
2021/04/03 06:04:18;;;;;;;5.97;4.30;;;;;;;12.89;35.63;99674.77;1646183;85;21191;-80
2021/04/03 06:06:57;;;;;;;6.60;3.93;;;;;;;12.82;35.69;99683.37;1647907;85;21197;-80
2021/04/03 06:09:25;;;;;;;5.30;4.80;;;;;;;12.58;35.76;99680.48;1656570;85;21184;-83
2021/04/03 06:11:53;;;;;;;4.33;3.93;;;;;;;12.44;36.78;99685.09;1654144;85;21139;-81
2021/04/03 06:14:20;;;;;;;4.90;4.50;;;;;;;12.60;36.38;99682.42;1646148;85;21166;-81
2021/04/03 06:16:52;;;;;;;6.07;4.43;;;;;;;12.69;35.64;99688.30;1645498;85;21213;-81
2021/04/03 06:19:25;;;;;;;5.73;4.63;;;;;;;12.68;35.84;99688.52;1654830;87;21345;-82
2021/04/03 06:22:00;;;;;;;6.33;4.20;;;;;;;12.73;36.14;99683.34;1656251;85;21482;-83
2021/04/03 06:24:33;;;;;;;4.27;3.90;;;;;;;12.86;35.78;99691.25;1655900;85;21354;-80
2021/04/03 06:27:10;;;;;;;9.20;5.10;;;;;;;12.80;36.74;99694.80;1652393;85;21505;-79
2021/04/03 06:32:29;;;;;;;5.73;5.17;;;;;;;12.19;37.71;99685.06;1810367;79;23005;-80
2021/04/03 06:34:56;;;;;;;5.40;4.90;;;;;;;11.84;38.99;99689.41;1747781;80;21085;-79
2021/04/03 06:37:42;;;;;;;5.70;4.70;;;;;;;11.71;37.85;99689.47;1742378;81;21553;-84
2021/04/03 06:40:37;;;;;;;5.57;4.93;;;;;;;11.53;38.15;99694.17;1785693;79;22999;-79
2021/04/03 06:43:21;;;;;;;5.73;5.03;;;;;;;11.26;39.90;99701.41;1767072;80;21843;-79
2021/04/03 06:46:24;;;;;;;6.70;5.23;;;;;;;11.26;39.57;99704.91;1641273;84;21080;-80
2021/04/03 06:48:54;;;;;;;6.73;6.03;;;;;;;11.05;39.63;99705.95;1652093;85;21813;-78
2021/04/03 06:51:22;;;;;;;7.00;4.37;;;;;;;10.55;40.96;99712.71;1624422;85;21234;-79
2021/04/03 06:53:51;;;;;;;6.07;5.37;;;;;;;10.25;41.78;99714.39;1665205;84;21228;-80
2021/04/03 06:56:25;;;;;;;8.37;4.87;;;;;;;10.11;41.54;99714.84;1653983;84;21414;-80
2021/04/03 06:59:02;;;;;;;8.67;5.17;;;;;;;9.84;41.90;99718.75;1685186;83;21258;-81
2021/04/03 07:01:52;;;;;;;6.37;4.90;;;;;;;9.55;42.94;99717.20;1663194;85;21105;-81
2021/04/03 07:04:42;;;;;;;5.85;4.50;;;;;;;9.20;43.77;99727.02;1654496;84;21218;-78
2021/04/03 07:07:11;;;;;;;5.77;4.33;;;;;;;8.94;44.04;99728.45;1656897;85;21711;-80
2021/04/03 07:09:44;;;;;;;9.27;5.63;;;;;;;8.77;45.55;99727.38;1660478;85;21177;-79
2021/04/03 07:12:16;;;;;;;5.83;5.10;;;;;;;8.75;45.72;99733.39;1648074;85;21174;-79
2021/04/03 07:14:45;;;;;;;6.47;5.27;;;;;;;8.79;45.95;99737.02;1597005;88;21693;-81
2021/04/03 07:17:15;;;;;;;5.20;4.63;;;;;;;8.74;45.81;99734.95;1657190;85;21164;-82
2021/04/03 07:19:45;;;;;;;6.03;4.10;;;;;;;8.63;46.47;99739.44;1656022;85;21189;-80
2021/04/03 07:22:13;;;;;;;6.53;5.00;;;;;;;8.53;46.22;99743.23;1649090;84;21331;-80
2021/04/03 07:24:44;;;;;;;5.83;5.23;;;;;;;8.47;46.51;99748.46;1662477;85;21616;-81
2021/04/03 07:27:12;;;;;;;5.33;4.80;;;;;;;8.52;46.53;99748.73;1648353;85;21205;-81
2021/04/03 07:29:48;;;;;;;5.93;4.63;;;;;;;8.51;46.72;99753.23;1647067;85;21203;-80
2021/04/03 07:32:37;;;;;;;8.87;5.83;;;;;;;8.42;46.74;99749.53;1622738;87;21351;-81
2021/04/03 07:35:17;;;;;;;6.73;4.60;;;;;;;8.32;46.99;99751.95;1620772;84;22128;-79
2021/04/03 07:37:47;;;;;;;5.10;4.67;;;;;;;8.36;48.43;99761.70;1645226;85;21373;-80
2021/04/03 07:40:25;;;;;;;5.50;4.93;;;;;;;8.47;47.25;99762.55;1640498;86;21211;-81
2021/04/03 07:42:52;;;;;;;7.93;5.03;;;;;;;8.56;47.22;99769.40;1641035;85;21217;-81
2021/04/03 07:45:43;;;;;;;6.70;5.43;;;;;;;8.71;46.27;99761.88;1638413;85;21120;-80
2021/04/03 07:48:24;;;;;;;7.73;6.10;;;;;;;8.81;46.03;99770.86;1677140;84;22240;-81
2021/04/03 07:50:50;;;;;;;7.70;5.77;;;;;;;8.85;45.92;99756.17;1676314;85;21200;-81
2021/04/03 07:53:45;;;;;;;7.77;4.27;;;;;;;8.84;46.24;99765.17;1672641;84;21196;-80
2021/04/03 07:56:18;;;;;;;5.73;4.93;;;;;;;8.84;45.71;99762.00;1659233;84;21111;-81
2021/04/03 07:58:49;;;;;;;9.13;5.50;;;;;;;8.84;45.34;99763.84;1645464;85;21211;-80
2021/04/03 08:01:24;;;;;;;6.67;3.93;;;;;;;8.89;45.48;99761.41;1668074;85;21406;-80
2021/04/03 08:04:03;;;;;;;3.23;2.93;;;;;;;8.97;45.89;99762.63;1634945;85;21181;-81
2021/04/03 08:06:39;;;;;;;4.67;3.17;;;;;;;9.13;44.44;99762.84;1644910;85;21213;-82
2021/04/03 08:09:14;;;;;;;3.37;2.60;;;;;;;9.18;44.07;99769.74;1652070;85;21239;-82
2021/04/03 08:11:46;;;;;;;6.60;2.37;;;;;;;9.25;43.85;99781.74;1646621;86;21200;-80
2021/04/03 08:14:16;;;;;;;5.43;1.93;;;;;;;9.31;43.42;99777.81;1648993;84;21629;-79
2021/04/03 08:16:45;;;;;;;5.70;1.73;;;;;;;9.32;41.87;99780.80;1657212;84;21802;-80
2021/04/03 08:19:14;;;;;;;2.23;1.77;;;;;;;9.32;41.53;99783.95;1623775;86;21233;-81
2021/04/03 08:21:45;;;;;;;3.03;1.07;;;;;;;9.37;40.95;99784.20;1670652;85;21346;-81
2021/04/03 08:24:20;;;;;;;2.43;1.60;;;;;;;9.43;40.04;99782.59;1662340;83;21198;-80
2021/04/03 08:26:49;;;;;;;3.07;1.80;;;;;;;9.47;40.71;99778.53;1661579;84;21641;-81
2021/04/03 08:29:31;;;;;;;9.80;2.00;;;;;;;9.52;40.27;99772.13;1674071;84;21671;-80
2021/04/03 08:32:03;;;;;;;3.13;2.03;;;;;;;9.58;39.95;99775.33;1674808;84;21274;-81
2021/04/03 08:34:32;;;;;;;1.30;1.20;;;;;;;9.61;40.19;99772.80;1677953;84;21137;-80
2021/04/03 08:36:59;;;;;;;2.47;1.77;;;;;;;9.64;40.30;99771.87;1680560;85;21185;-81
2021/04/03 08:39:27;;;;;;;3.17;2.00;;;;;;;9.67;40.53;99769.35;1669727;84;21323;-80
2021/04/03 08:41:57;;;;;;;4.03;1.90;;;;;;;9.66;39.74;99771.69;1682508;84;21342;-79
2021/04/03 08:44:30;;;;;;;2.77;1.63;;;;;;;9.63;39.51;99772.09;1676961;83;21100;-81
2021/04/03 08:47:05;;;;;;;2.33;2.00;;;;;;;9.63;40.09;99765.44;1675257;83;21228;-81
2021/04/03 08:50:32;;;;;;;3.67;2.20;;;;;;;9.79;39.60;99759.77;1751923;79;22411;-82
2021/04/03 08:53:06;;;;;;;2.90;2.17;;;;;;;9.83;39.87;99762.87;1727290;82;21889;-81
2021/04/03 08:55:35;;;;;;;3.13;2.20;;;;;;;9.93;40.24;99757.50;1716710;80;21273;-81
2021/04/03 08:58:05;;;;;;;2.63;2.23;;;;;;;10.06;39.42;99754.08;1665372;84;21341;-81
2021/04/03 09:00:34;;;;;;;4.83;2.00;;;;;;;10.07;39.66;99757.03;1661311;83;21210;-82
2021/04/03 09:03:02;;;;;;;5.87;1.90;;;;;;;10.05;38.38;99747.61;1681252;83;21212;-80
2021/04/03 09:05:30;;;;;;;1.90;1.70;;;;;;;10.06;38.22;99751.93;1675381;83;21203;-78
2021/04/03 09:07:57;;;;;;;2.37;1.90;;;;;;;10.14;39.10;99745.90;1682279;83;21194;-82
2021/04/03 09:10:25;;;;;;;4.27;1.73;;;;;;;10.24;37.90;99748.17;1670971;83;21195;-82
2021/04/03 09:12:53;;;;;;;2.07;1.40;;;;;;;10.28;36.90;99754.77;1658550;85;21244;-81
2021/04/03 09:15:29;;;;;;;2.83;1.30;;;;;;;10.27;36.23;99754.97;1638577;85;21659;-82
2021/04/03 09:17:58;;;;;;;4.30;1.73;;;;;;;10.27;37.21;99753.11;1653430;85;21710;-80
2021/04/03 09:20:29;;;;;;;2.60;1.77;;;;;;;10.34;36.75;99747.84;1651493;85;21171;-82
2021/04/03 09:23:06;;;;;;;4.00;1.90;;;;;;;10.41;36.92;99751.84;1642508;85;21124;-81
2021/04/03 09:25:33;;;;;;;8.05;1.80;;;;;;;10.41;36.59;99751.33;1642442;84;21207;-80
2021/04/03 09:28:05;;;;;;;3.33;2.07;;;;;;;10.42;36.68;99753.50;1665756;83;21696;-81
2021/04/03 09:30:45;;;;;;;2.00;1.77;;;;;;;10.46;36.11;99752.88;1668078;84;21171;-80
2021/04/03 09:33:21;;;;;;;2.47;1.73;;;;;;;10.38;36.57;99753.56;1665275;84;21220;-82
2021/04/03 09:35:52;;;;;;;3.03;1.70;;;;;;;10.30;37.22;99763.41;1671551;84;21181;-80
2021/04/03 09:41:30;;;;;;;3.47;1.30;;;;;;;10.47;36.05;99753.20;1750588;79;23092;-82
2021/04/03 09:43:57;;;;;;;2.33;1.50;;;;;;;10.44;35.76;99752.27;1746592;80;21196;-82
2021/04/03 09:46:28;;;;;;;1.50;1.40;;;;;;;10.45;35.37;99746.42;1701691;81;21108;-81
2021/04/03 09:48:56;;;;;;;3.50;1.77;;;;;;;10.48;35.34;99751.35;1695209;83;21179;-80
2021/04/03 09:51:23;;;;;;;1.23;1.13;;;;;;;10.51;35.24;99754.95;1664274;85;21193;-82
2021/04/03 09:53:51;;;;;;;1.80;1.17;;;;;;;10.58;35.37;99750.95;1699488;83;21158;-81
2021/04/03 09:56:19;;;;;;;1.53;1.00;;;;;;;10.63;35.81;99751.98;1667310;84;21097;-81
2021/04/03 09:58:47;;;;;;;1.30;0.80;;;;;;;10.71;35.97;99753.63;1708330;82;21194;-82
2021/04/03 10:01:14;;;;;;;2.87;1.17;;;;;;;10.77;35.45;99754.67;1701764;82;21124;-82
2021/04/03 10:03:42;;;;;;;1.50;0.83;;;;;;;10.77;35.56;99753.34;1693360;83;21180;-82
2021/04/03 10:06:10;;;;;;;0.97;0.93;;;;;;;10.81;34.85;99747.90;1691993;83;21212;-81
2021/04/03 10:08:38;;;;;;;1.73;1.13;;;;;;;10.85;34.86;99751.80;1689942;85;21354;-80
2021/04/03 10:11:07;;;;;;;2.87;0.70;;;;;;;10.92;35.18;99749.95;1689521;83;21192;-81
2021/04/03 10:13:35;;;;;;;1.07;0.70;;;;;;;11.00;34.87;99751.10;1674942;85;21513;-78
2021/04/03 10:16:04;;;;;;;1.10;0.80;;;;;;;11.12;34.50;99755.81;1675358;85;22340;-81
2021/04/03 10:18:33;;;;;;;0.83;0.60;;;;;;;11.19;33.81;99753.94;1673668;85;21197;-80
2021/04/03 10:21:02;;;;;;;0.43;0.40;;;;;;;11.23;33.87;99756.53;1673428;85;21196;-80
2021/04/03 10:23:29;;;;;;;2.17;0.90;;;;;;;11.21;33.24;99759.39;1655064;85;21172;-78
2021/04/03 10:25:56;;;;;;;1.50;1.03;;;;;;;11.20;33.57;99760.94;1676561;84;21213;-82
2021/04/03 10:28:23;;;;;;;2.00;0.47;;;;;;;11.08;32.38;99766.89;1676687;84;21625;-81
2021/04/03 10:30:51;;;;;;;2.00;0.93;;;;;;;10.97;32.62;99766.69;1677324;84;22328;-80
2021/04/03 10:33:18;;;;;;;1.20;0.57;;;;;;;10.87;32.21;99759.91;1675201;84;21208;-82
2021/04/03 10:35:48;;;;;;;3.33;0.43;;;;;;;10.77;31.55;99765.33;1671960;84;21329;-80
2021/04/03 10:38:18;;;;;;;0.50;0.30;;;;;;;10.78;32.34;99752.33;1672620;84;22293;-80
2021/04/03 10:40:45;;;;;;;1.40;0.70;;;;;;;10.83;32.33;99757.35;1670462;85;21244;-81
2021/04/03 10:43:14;;;;;;;0.33;0.20;;;;;;;10.89;31.94;99755.20;1661893;85;21199;-81
2021/04/03 10:45:41;;;;;;;3.60;0.30;;;;;;;10.90;30.92;99744.01;1616839;87;21124;-81
2021/04/03 10:48:09;;;;;;;0.30;0.23;;;;;;;10.83;31.16;99749.84;1622934;87;21215;-81
2021/04/03 10:50:36;;;;;;;0.90;0.30;;;;;;;10.75;31.06;99744.72;1638080;86;21357;-79
2021/04/03 10:53:02;;;;;;;1.23;0.30;;;;;;;10.59;31.04;99748.09;1643407;86;21202;-79
2021/04/03 10:55:31;;;;;;;0.60;0.40;;;;;;;10.50;31.69;99752.78;1636986;85;21112;-80
2021/04/03 10:57:58;;;;;;;0.90;0.50;;;;;;;10.59;32.17;99752.61;1644044;87;21230;-82
2021/04/03 11:00:27;;;;;;;2.17;0.43;;;;;;;10.76;33.09;99746.38;1642539;87;21117;-81
2021/04/03 11:02:55;;;;;;;1.63;0.50;;;;;;;10.87;32.88;99742.59;1646794;87;21208;-79
2021/04/03 11:05:23;;;;;;;2.87;0.23;;;;;;;10.86;33.55;99738.27;1643997;86;21220;-80
2021/04/03 11:07:51;;;;;;;0.83;0.60;;;;;;;10.71;33.76;99702.47;1647479;86;21235;-79
2021/04/03 11:10:18;;;;;;;0.63;0.60;;;;;;;10.97;33.53;99742.17;1647831;86;21198;-80
2021/04/03 11:12:46;;;;;;;0.83;0.30;;;;;;;11.04;32.58;99746.99;1647732;86;21091;-81
2021/04/03 11:15:16;;;;;;;0.90;0.23;;;;;;;11.08;32.15;99743.41;1646774;87;21787;-80
2021/04/03 11:17:42;;;;;;;0.77;0.40;;;;;;;10.98;31.17;99747.83;1644316;87;21243;-81
2021/04/03 11:20:11;;;;;;;0.90;0.73;;;;;;;10.82;30.50;99735.70;1646369;86;21312;-80
2021/04/03 11:22:41;;;;;;;0.83;0.60;;;;;;;10.79;29.77;99741.95;1648597;86;21149;-80
2021/04/03 11:25:09;;;;;;;0.40;0.20;;;;;;;10.76;29.51;99737.86;1652970;86;21224;-81
2021/04/03 11:27:36;;;;;;;1.00;0.30;;;;;;;10.71;28.45;99741.13;1650967;87;21213;-80
2021/04/03 11:30:14;;;;;;;0.60;0.30;;;;;;;10.63;28.61;99741.33;1641396;86;21203;-80
2021/04/03 11:32:47;;;;;;;0.33;0.20;;;;;;;10.56;28.99;99747.67;1654979;85;22351;-81
2021/04/03 11:35:17;;;;;;;1.33;0.17;;;;;;;10.52;28.45;99744.07;1618416;87;21110;-82
2021/04/03 11:37:47;;;;;;;1.13;0.20;;;;;;;10.46;28.30;99753.41;1628724;87;21150;-81
2021/04/03 11:40:18;;;;;;;2.20;0.10;;;;;;;10.42;28.37;99742.84;1676331;85;21214;-82
2021/04/03 11:42:52;;;;;;;0.50;0.30;;;;;;;10.41;28.59;99741.19;1681283;85;21206;-81
2021/04/03 11:45:18;;;;;;;0.20;0.10;;;;;;;10.39;28.31;99746.71;1654860;84;21264;-82
2021/04/03 11:47:46;;;;;;;2.10;0.50;;;;;;;10.28;28.67;99745.94;1655854;86;21338;-79
2021/04/03 11:50:17;;;;;;;1.17;0.43;;;;;;;10.21;28.98;99748.59;1657201;85;21185;-82
2021/04/03 11:52:45;;;;;;;0.40;0.20;;;;;;;10.25;29.56;99749.83;1654973;85;21185;-81
2021/04/03 11:55:16;;;;;;;0.30;0.10;;;;;;;10.31;29.36;99742.91;1632183;85;21236;-80
2021/04/03 11:57:43;;;;;;;0.40;0.20;;;;;;;10.28;29.76;99734.80;1650162;85;21173;-80
2021/04/03 12:00:14;;;;;;;0.50;0.20;;;;;;;10.31;29.57;99734.92;1619930;87;21210;-82